sensor_id;sensor_type;location;lat;lon;timestamp;pressure;altitude;pressure_sealevel;temperature;humidity
32243;BME280;18731;42.830;24.390;2022-12-18T02:58:52;95295.41;;;7.77;90.89
32243;BME280;18731;42.830;24.390;2022-12-18T03:01:30;95304.47;;;7.75;91.35
32243;BME280;18731;42.830;24.390;2022-12-18T03:04:16;95306.28;;;7.80;90.57
32243;BME280;18731;42.830;24.390;2022-12-18T03:06:49;95301.78;;;7.75;90.56
32243;BME280;18731;42.830;24.390;2022-12-18T03:09:22;95312.88;;;7.83;89.79
32243;BME280;18731;42.830;24.390;2022-12-18T03:11:56;95311.84;;;7.79;89.33
32243;BME280;18731;42.830;24.390;2022-12-18T03:14:43;95317.53;;;7.72;89.44
32243;BME280;18731;42.830;24.390;2022-12-18T03:17:14;95313.16;;;7.62;90.23
32243;BME280;18731;42.830;24.390;2022-12-18T03:19:42;95330.19;;;7.61;90.64
32243;BME280;18731;42.830;24.390;2022-12-18T03:22:09;95328.59;;;7.60;91.05
32243;BME280;18731;42.830;24.390;2022-12-18T03:24:36;95327.22;;;7.63;90.82
32243;BME280;18731;42.830;24.390;2022-12-18T03:27:08;95328.53;;;7.65;90.45
32243;BME280;18731;42.830;24.390;2022-12-18T03:29:45;95323.72;;;7.67;89.82
32243;BME280;18731;42.830;24.390;2022-12-18T03:32:24;95337.72;;;7.54;90.34
32243;BME280;18731;42.830;24.390;2022-12-18T03:34:52;95343.53;;;7.56;90.95
32243;BME280;18731;42.830;24.390;2022-12-18T03:37:20;95351.50;;;7.56;91.08
32243;BME280;18731;42.830;24.390;2022-12-18T03:39:46;95349.28;;;7.63;90.37
32243;BME280;18731;42.830;24.390;2022-12-18T03:42:37;95370.31;;;7.60;90.58
32243;BME280;18731;42.830;24.390;2022-12-18T03:50:22;95385.19;;;7.61;90.59
32243;BME280;18731;42.830;24.390;2022-12-18T03:53:02;95376.13;;;7.62;90.35
32243;BME280;18731;42.830;24.390;2022-12-18T03:55:33;95387.84;;;7.61;90.55
32243;BME280;18731;42.830;24.390;2022-12-18T03:58:01;95390.72;;;7.64;89.16
32243;BME280;18731;42.830;24.390;2022-12-18T04:00:29;95388.56;;;7.66;89.17
32243;BME280;18731;42.830;24.390;2022-12-18T04:02:57;95394.88;;;7.70;88.93
32243;BME280;18731;42.830;24.390;2022-12-18T04:05:26;95391.66;;;7.73;88.83
32243;BME280;18731;42.830;24.390;2022-12-18T04:07:54;95389.94;;;7.64;89.21
32243;BME280;18731;42.830;24.390;2022-12-18T04:10:22;95379.59;;;7.62;88.66
32243;BME280;18731;42.830;24.390;2022-12-18T04:12:48;95402.06;;;7.70;88.93
32243;BME280;18731;42.830;24.390;2022-12-18T04:15:13;95402.41;;;7.63;88.81
32243;BME280;18731;42.830;24.390;2022-12-18T04:17:46;95395.75;;;7.66;88.55
32243;BME280;18731;42.830;24.390;2022-12-18T04:20:12;95406.81;;;7.73;88.02
32243;BME280;18731;42.830;24.390;2022-12-18T04:22:38;95415.84;;;7.72;88.34
32243;BME280;18731;42.830;24.390;2022-12-18T04:25:04;95418.91;;;7.84;87.65
32243;BME280;18731;42.830;24.390;2022-12-18T04:27:30;95401.28;;;7.69;87.35
32243;BME280;18731;42.830;24.390;2022-12-18T04:29:55;95426.91;;;7.79;87.50
32243;BME280;18731;42.830;24.390;2022-12-18T04:32:21;95425.81;;;7.85;87.34
32243;BME280;18731;42.830;24.390;2022-12-18T04:34:46;95419.59;;;7.71;87.71
32243;BME280;18731;42.830;24.390;2022-12-18T04:37:12;95429.25;;;7.86;87.14
32243;BME280;18731;42.830;24.390;2022-12-18T04:39:38;95441.81;;;7.99;86.32
32243;BME280;18731;42.830;24.390;2022-12-18T04:42:04;95444.56;;;7.94;86.77
32243;BME280;18731;42.830;24.390;2022-12-18T04:44:30;95445.91;;;7.91;86.05
32243;BME280;18731;42.830;24.390;2022-12-18T04:46:55;95432.69;;;7.86;86.16
32243;BME280;18731;42.830;24.390;2022-12-18T04:49:21;95456.47;;;7.96;85.88
32243;BME280;18731;42.830;24.390;2022-12-18T04:51:47;95446.78;;;7.87;86.15
32243;BME280;18731;42.830;24.390;2022-12-18T04:54:12;95456.13;;;7.84;86.55
32243;BME280;18731;42.830;24.390;2022-12-18T04:56:38;95469.19;;;7.81;87.14
32243;BME280;18731;42.830;24.390;2022-12-18T04:59:05;95466.06;;;7.73;87.46
32243;BME280;18731;42.830;24.390;2022-12-18T05:01:30;95488.59;;;7.81;87.43
32243;BME280;18731;42.830;24.390;2022-12-18T05:03:56;95485.66;;;7.78;87.89
32243;BME280;18731;42.830;24.390;2022-12-18T05:06:21;95474.09;;;7.68;87.64
32243;BME280;18731;42.830;24.390;2022-12-18T05:08:47;95471.50;;;7.63;88.09
32243;BME280;18731;42.830;24.390;2022-12-18T05:11:14;95489.97;;;7.73;88.34
32243;BME280;18731;42.830;24.390;2022-12-18T05:13:41;95496.16;;;7.69;88.48
32243;BME280;18731;42.830;24.390;2022-12-18T05:16:08;95490.03;;;7.68;87.58
32243;BME280;18731;42.830;24.390;2022-12-18T05:18:34;95506.56;;;7.65;87.93
32243;BME280;18731;42.830;24.390;2022-12-18T05:21:00;95496.22;;;7.64;88.27
32243;BME280;18731;42.830;24.390;2022-12-18T05:23:26;95484.34;;;7.56;88.48
32243;BME280;18731;42.830;24.390;2022-12-18T05:25:54;95502.31;;;7.64;88.36
32243;BME280;18731;42.830;24.390;2022-12-18T05:28:20;95509.50;;;7.64;88.03
32243;BME280;18731;42.830;24.390;2022-12-18T05:30:53;95508.25;;;7.56;88.24
32243;BME280;18731;42.830;24.390;2022-12-18T05:33:21;95520.19;;;7.35;89.22
32243;BME280;18731;42.830;24.390;2022-12-18T05:35:55;95523.91;;;7.34;89.36
32243;BME280;18731;42.830;24.390;2022-12-18T05:38:22;95521.13;;;7.20;89.54
32243;BME280;18731;42.830;24.390;2022-12-18T05:40:50;95523.81;;;7.15;89.58
32243;BME280;18731;42.830;24.390;2022-12-18T05:43:16;95528.41;;;7.09;90.12
32243;BME280;18731;42.830;24.390;2022-12-18T05:45:42;95526.63;;;7.00;90.98
32243;BME280;18731;42.830;24.390;2022-12-18T05:48:08;95529.88;;;6.92;91.37
32243;BME280;18731;42.830;24.390;2022-12-18T05:50:40;95532.25;;;6.93;91.83
32243;BME280;18731;42.830;24.390;2022-12-18T05:53:06;95536.53;;;6.89;92.09
32243;BME280;18731;42.830;24.390;2022-12-18T05:55:36;95543.34;;;7.00;92.23
32243;BME280;18731;42.830;24.390;2022-12-18T05:58:03;95543.38;;;6.95;91.69
32243;BME280;18731;42.830;24.390;2022-12-18T06:00:29;95552.34;;;7.04;91.58
32243;BME280;18731;42.830;24.390;2022-12-18T06:02:55;95558.16;;;7.06;90.40
32243;BME280;18731;42.830;24.390;2022-12-18T06:05:21;95571.75;;;7.00;90.95
32243;BME280;18731;42.830;24.390;2022-12-18T06:07:46;95556.69;;;6.90;91.49
32243;BME280;18731;42.830;24.390;2022-12-18T06:10:12;95544.09;;;6.72;91.86
32243;BME280;18731;42.830;24.390;2022-12-18T06:12:38;95578.97;;;6.94;91.94
32243;BME280;18731;42.830;24.390;2022-12-18T06:15:04;95581.56;;;6.99;91.71
32243;BME280;18731;42.830;24.390;2022-12-18T06:17:30;95585.59;;;6.97;91.81
32243;BME280;18731;42.830;24.390;2022-12-18T06:19:57;95581.63;;;6.94;91.82
32243;BME280;18731;42.830;24.390;2022-12-18T06:22:23;95599.91;;;6.96;91.40
32243;BME280;18731;42.830;24.390;2022-12-18T06:24:49;95600.44;;;6.98;91.85
32243;BME280;18731;42.830;24.390;2022-12-18T06:27:15;95594.59;;;6.96;91.16
32243;BME280;18731;42.830;24.390;2022-12-18T06:29:41;95603.28;;;7.06;91.12
32243;BME280;18731;42.830;24.390;2022-12-18T06:32:07;95597.69;;;7.08;90.62
32243;BME280;18731;42.830;24.390;2022-12-18T06:34:33;95608.47;;;7.22;90.18
32243;BME280;18731;42.830;24.390;2022-12-18T06:36:59;95611.69;;;7.19;89.76
32243;BME280;18731;42.830;24.390;2022-12-18T06:39:27;95615.03;;;7.29;89.44
32243;BME280;18731;42.830;24.390;2022-12-18T06:41:53;95622.59;;;7.46;88.18
32243;BME280;18731;42.830;24.390;2022-12-18T06:44:18;95630.00;;;7.49;87.99
32243;BME280;18731;42.830;24.390;2022-12-18T06:46:44;95630.47;;;7.56;87.69
32243;BME280;18731;42.830;24.390;2022-12-18T06:49:10;95631.03;;;7.53;87.65
32243;BME280;18731;42.830;24.390;2022-12-18T06:51:36;95624.88;;;7.58;87.68
32243;BME280;18731;42.830;24.390;2022-12-18T06:54:01;95637.91;;;7.54;87.12
32243;BME280;18731;42.830;24.390;2022-12-18T06:56:27;95637.31;;;7.62;86.61
32243;BME280;18731;42.830;24.390;2022-12-18T06:58:53;95636.81;;;7.60;85.97
32243;BME280;18731;42.830;24.390;2022-12-18T07:01:20;95640.53;;;7.59;86.48
32243;BME280;18731;42.830;24.390;2022-12-18T07:03:46;95602.28;;;7.31;86.05
32243;BME280;18731;42.830;24.390;2022-12-18T07:06:17;95649.03;;;7.61;86.08
32243;BME280;18731;42.830;24.390;2022-12-18T07:08:44;95647.44;;;7.60;85.75
32243;BME280;18731;42.830;24.390;2022-12-18T07:11:11;95657.00;;;7.61;85.84
32243;BME280;18731;42.830;24.390;2022-12-18T07:13:36;95639.22;;;7.57;85.82
32243;BME280;18731;42.830;24.390;2022-12-18T07:16:10;95657.16;;;7.70;85.26
32243;BME280;18731;42.830;24.390;2022-12-18T07:18:36;95656.88;;;7.71;84.80
32243;BME280;18731;42.830;24.390;2022-12-18T07:21:07;95666.44;;;7.72;84.78
32243;BME280;18731;42.830;24.390;2022-12-18T07:23:34;95662.41;;;7.80;83.90
32243;BME280;18731;42.830;24.390;2022-12-18T07:26:02;95667.53;;;7.71;81.31
32243;BME280;18731;42.830;24.390;2022-12-18T07:28:28;95672.56;;;7.73;82.50
32243;BME280;18731;42.830;24.390;2022-12-18T07:30:53;95664.41;;;7.64;82.28
32243;BME280;18731;42.830;24.390;2022-12-18T07:33:19;95676.50;;;7.81;82.11
32243;BME280;18731;42.830;24.390;2022-12-18T07:35:45;95683.69;;;7.80;82.27
32243;BME280;18731;42.830;24.390;2022-12-18T07:38:10;95665.41;;;7.68;81.23
32243;BME280;18731;42.830;24.390;2022-12-18T07:40:36;95676.50;;;7.75;81.00
32243;BME280;18731;42.830;24.390;2022-12-18T07:43:01;95684.97;;;7.83;80.16
32243;BME280;18731;42.830;24.390;2022-12-18T07:45:27;95674.88;;;7.85;80.55
32243;BME280;18731;42.830;24.390;2022-12-18T07:47:52;95674.88;;;7.85;80.73
32243;BME280;18731;42.830;24.390;2022-12-18T07:50:18;95678.25;;;7.90;80.36
32243;BME280;18731;42.830;24.390;2022-12-18T07:52:44;95681.72;;;7.91;78.39
32243;BME280;18731;42.830;24.390;2022-12-18T07:55:09;95682.63;;;7.76;77.79
32243;BME280;18731;42.830;24.390;2022-12-18T07:57:35;95689.50;;;7.82;79.98
32243;BME280;18731;42.830;24.390;2022-12-18T08:00:01;95686.53;;;7.89;80.92
32243;BME280;18731;42.830;24.390;2022-12-18T08:02:30;95689.69;;;7.91;81.25
32243;BME280;18731;42.830;24.390;2022-12-18T08:04:56;95686.41;;;7.99;80.92
32243;BME280;18731;42.830;24.390;2022-12-18T08:07:21;95695.47;;;7.98;81.54
32243;BME280;18731;42.830;24.390;2022-12-18T08:09:47;95691.28;;;7.92;81.44
32243;BME280;18731;42.830;24.390;2022-12-18T08:12:13;95692.28;;;7.96;81.06
32243;BME280;18731;42.830;24.390;2022-12-18T08:14:38;95690.47;;;7.91;78.48
32243;BME280;18731;42.830;24.390;2022-12-18T08:17:04;95683.13;;;7.83;76.14
32243;BME280;18731;42.830;24.390;2022-12-18T08:19:29;95705.19;;;7.84;76.12
32243;BME280;18731;42.830;24.390;2022-12-18T08:21:55;95704.66;;;7.82;73.85
32243;BME280;18731;42.830;24.390;2022-12-18T08:24:22;95709.19;;;7.76;73.38
32243;BME280;18731;42.830;24.390;2022-12-18T08:26:47;95701.03;;;7.67;75.75
32243;BME280;18731;42.830;24.390;2022-12-18T08:29:13;95698.09;;;7.69;73.25
32243;BME280;18731;42.830;24.390;2022-12-18T08:31:39;95705.59;;;7.62;74.89
32243;BME280;18731;42.830;24.390;2022-12-18T08:34:04;95710.00;;;7.77;75.98
32243;BME280;18731;42.830;24.390;2022-12-18T08:36:30;95706.88;;;7.69;74.88
32243;BME280;18731;42.830;24.390;2022-12-18T08:38:56;95718.47;;;7.79;74.56
32243;BME280;18731;42.830;24.390;2022-12-18T08:41:22;95721.69;;;7.75;71.45
32243;BME280;18731;42.830;24.390;2022-12-18T08:43:47;95724.59;;;7.45;67.99
32243;BME280;18731;42.830;24.390;2022-12-18T08:46:40;95724.91;;;6.99;68.18
32243;BME280;18731;42.830;24.390;2022-12-18T08:49:07;95726.28;;;6.92;67.99
32243;BME280;18731;42.830;24.390;2022-12-18T08:51:34;95737.69;;;6.92;69.58
32243;BME280;18731;42.830;24.390;2022-12-18T08:54:00;95730.84;;;6.81;69.30
32243;BME280;18731;42.830;24.390;2022-12-18T08:56:26;95741.53;;;6.71;66.02
32243;BME280;18731;42.830;24.390;2022-12-18T08:58:53;95729.88;;;6.62;68.39
32243;BME280;18731;42.830;24.390;2022-12-18T09:01:19;95737.28;;;6.70;67.59
32243;BME280;18731;42.830;24.390;2022-12-18T09:03:45;95750.81;;;6.68;65.06
32243;BME280;18731;42.830;24.390;2022-12-18T09:06:13;95747.84;;;6.80;67.95
32243;BME280;18731;42.830;24.390;2022-12-18T09:08:40;95745.72;;;6.77;65.21
32243;BME280;18731;42.830;24.390;2022-12-18T09:11:14;95741.38;;;6.96;69.56
32243;BME280;18731;42.830;24.390;2022-12-18T09:13:40;95757.22;;;7.12;68.30
32243;BME280;18731;42.830;24.390;2022-12-18T09:16:06;95750.34;;;7.10;70.46
32243;BME280;18731;42.830;24.390;2022-12-18T09:18:31;95759.31;;;7.20;67.41
32243;BME280;18731;42.830;24.390;2022-12-18T09:20:57;95744.22;;;7.10;62.14
32243;BME280;18731;42.830;24.390;2022-12-18T09:23:22;95746.00;;;7.25;65.36
32243;BME280;18731;42.830;24.390;2022-12-18T09:25:48;95761.56;;;7.41;67.37
32243;BME280;18731;42.830;24.390;2022-12-18T09:28:16;95756.97;;;7.52;70.78
32243;BME280;18731;42.830;24.390;2022-12-18T09:30:45;95757.47;;;7.54;66.73
32243;BME280;18731;42.830;24.390;2022-12-18T09:33:11;95748.75;;;7.49;62.25
32243;BME280;18731;42.830;24.390;2022-12-18T09:35:38;95743.25;;;7.40;61.81
32243;BME280;18731;42.830;24.390;2022-12-18T09:38:04;95753.81;;;7.45;62.22
32243;BME280;18731;42.830;24.390;2022-12-18T09:40:35;95745.28;;;7.53;62.86
32243;BME280;18731;42.830;24.390;2022-12-18T09:43:04;95737.38;;;7.43;62.20
32243;BME280;18731;42.830;24.390;2022-12-18T09:45:38;95749.50;;;7.54;54.79
32243;BME280;18731;42.830;24.390;2022-12-18T09:48:10;95746.50;;;7.66;62.95
32243;BME280;18731;42.830;24.390;2022-12-18T09:50:42;95748.09;;;7.67;66.42
32243;BME280;18731;42.830;24.390;2022-12-18T09:53:19;95760.47;;;7.82;68.35
32243;BME280;18731;42.830;24.390;2022-12-18T09:55:48;95757.72;;;7.92;66.42
32243;BME280;18731;42.830;24.390;2022-12-18T09:58:38;95764.03;;;8.01;66.00
32243;BME280;18731;42.830;24.390;2022-12-18T10:01:14;95753.31;;;8.11;65.58
32243;BME280;18731;42.830;24.390;2022-12-18T10:03:41;95753.19;;;8.21;61.17
32243;BME280;18731;42.830;24.390;2022-12-18T10:14:04;95754.81;;;8.46;58.44
32243;BME280;18731;42.830;24.390;2022-12-18T10:25:20;95765.63;;;8.79;50.93
32243;BME280;18731;42.830;24.390;2022-12-18T10:27:44;95764.22;;;8.62;46.94
32243;BME280;18731;42.830;24.390;2022-12-18T10:30:16;95769.72;;;8.71;47.49
32243;BME280;18731;42.830;24.390;2022-12-18T10:32:42;95759.47;;;8.59;46.82
32243;BME280;18731;42.830;24.390;2022-12-18T10:35:23;95763.25;;;8.53;47.66
32243;BME280;18731;42.830;24.390;2022-12-18T10:40:59;95760.84;;;8.28;45.58
32243;BME280;18731;42.830;24.390;2022-12-18T10:43:36;95756.09;;;7.96;44.91
32243;BME280;18731;42.830;24.390;2022-12-18T10:48:48;95757.78;;;7.87;48.79
32243;BME280;18731;42.830;24.390;2022-12-18T10:53:54;95763.78;;;7.63;45.11
32243;BME280;18731;42.830;24.390;2022-12-18T10:56:21;95756.41;;;7.55;46.21
32243;BME280;18731;42.830;24.390;2022-12-18T10:58:59;95759.22;;;7.35;46.05
32243;BME280;18731;42.830;24.390;2022-12-18T11:01:25;95751.94;;;7.12;46.34
32243;BME280;18731;42.830;24.390;2022-12-18T11:06:23;95757.28;;;7.01;47.46
32243;BME280;18731;42.830;24.390;2022-12-18T11:09:19;95749.31;;;7.06;48.12
32243;BME280;18731;42.830;24.390;2022-12-18T11:11:53;95753.25;;;7.09;47.69
32243;BME280;18731;42.830;24.390;2022-12-18T11:14:29;95759.03;;;7.21;48.07
32243;BME280;18731;42.830;24.390;2022-12-18T11:16:57;95755.53;;;7.31;48.78
32243;BME280;18731;42.830;24.390;2022-12-18T11:19:37;95752.28;;;7.39;49.88
32243;BME280;18731;42.830;24.390;2022-12-18T11:22:24;95754.81;;;7.54;48.65
32243;BME280;18731;42.830;24.390;2022-12-18T11:25:05;95750.31;;;7.55;49.03
32243;BME280;18731;42.830;24.390;2022-12-18T11:27:32;95754.19;;;7.67;50.85
32243;BME280;18731;42.830;24.390;2022-12-18T11:30:35;95672.63;;;7.34;48.60
32243;BME280;18731;42.830;24.390;2022-12-18T11:33:05;95747.63;;;7.94;49.58
32243;BME280;18731;42.830;24.390;2022-12-18T11:35:53;95746.44;;;8.05;50.45
32243;BME280;18731;42.830;24.390;2022-12-18T11:38:30;95747.66;;;8.18;50.12
32243;BME280;18731;42.830;24.390;2022-12-18T11:43:49;95757.72;;;8.50;50.47
32243;BME280;18731;42.830;24.390;2022-12-18T11:46:23;95752.06;;;8.56;51.39
32243;BME280;18731;42.830;24.390;2022-12-18T11:48:56;95755.44;;;8.62;49.68
32243;BME280;18731;42.830;24.390;2022-12-18T11:51:36;95755.38;;;8.67;51.26
32243;BME280;18731;42.830;24.390;2022-12-18T11:54:12;95755.72;;;8.84;48.70
32243;BME280;18731;42.830;24.390;2022-12-18T11:56:48;95748.16;;;8.91;49.73
32243;BME280;18731;42.830;24.390;2022-12-18T12:01:52;95754.13;;;8.83;49.70
32243;BME280;18731;42.830;24.390;2022-12-18T12:04:33;95760.81;;;8.81;49.46
32243;BME280;18731;42.830;24.390;2022-12-18T12:07:43;95762.28;;;8.92;51.17
32243;BME280;18731;42.830;24.390;2022-12-18T12:18:47;95756.00;;;8.83;50.06
32243;BME280;18731;42.830;24.390;2022-12-18T12:32:48;95753.09;;;8.79;48.55
32243;BME280;18731;42.830;24.390;2022-12-18T12:35:47;95755.66;;;8.89;47.06
32243;BME280;18731;42.830;24.390;2022-12-18T12:38:33;95751.97;;;8.85;47.54
32243;BME280;18731;42.830;24.390;2022-12-18T12:41:08;95764.03;;;8.78;48.13
32243;BME280;18731;42.830;24.390;2022-12-18T12:43:57;95761.94;;;8.75;47.25
32243;BME280;18731;42.830;24.390;2022-12-18T12:46:26;95766.03;;;8.67;48.16
32243;BME280;18731;42.830;24.390;2022-12-18T12:49:02;95768.25;;;8.60;47.72
32243;BME280;18731;42.830;24.390;2022-12-18T12:51:35;95768.31;;;8.55;49.01
32243;BME280;18731;42.830;24.390;2022-12-18T12:54:04;95770.69;;;8.56;48.05
32243;BME280;18731;42.830;24.390;2022-12-18T12:56:45;95781.66;;;8.50;48.17
32243;BME280;18731;42.830;24.390;2022-12-18T12:59:21;95776.44;;;8.40;48.05
32243;BME280;18731;42.830;24.390;2022-12-18T13:04:41;95778.25;;;8.15;46.93
32243;BME280;18731;42.830;24.390;2022-12-18T13:07:27;95779.09;;;8.11;47.99
32243;BME280;18731;42.830;24.390;2022-12-18T13:20:44;95777.69;;;7.89;47.22
32243;BME280;18731;42.830;24.390;2022-12-18T13:25:44;95746.84;;;7.54;47.68
32243;BME280;18731;42.830;24.390;2022-12-18T13:28:13;95793.94;;;7.88;47.95
32243;BME280;18731;42.830;24.390;2022-12-18T13:38:36;95795.50;;;7.89;49.56
32243;BME280;18731;42.830;24.390;2022-12-18T13:43:49;95796.50;;;7.98;48.72
32243;BME280;18731;42.830;24.390;2022-12-18T13:46:24;95802.56;;;8.03;48.08
32243;BME280;18731;42.830;24.390;2022-12-18T13:49:02;95811.38;;;7.99;48.59
32243;BME280;18731;42.830;24.390;2022-12-18T13:51:31;95809.72;;;8.08;49.47
32243;BME280;18731;42.830;24.390;2022-12-18T13:54:00;95811.34;;;8.04;49.23
32243;BME280;18731;42.830;24.390;2022-12-18T13:56:32;95809.72;;;8.08;49.05
32243;BME280;18731;42.830;24.390;2022-12-18T14:01:35;95799.06;;;8.08;49.56
32243;BME280;18731;42.830;24.390;2022-12-18T14:04:34;95807.00;;;8.13;49.60
32243;BME280;18731;42.830;24.390;2022-12-18T14:07:09;95801.06;;;8.21;50.03
32243;BME280;18731;42.830;24.390;2022-12-18T14:09:40;95809.00;;;8.26;49.99
32243;BME280;18731;42.830;24.390;2022-12-18T14:12:21;95814.88;;;8.23;49.78
32243;BME280;18731;42.830;24.390;2022-12-18T14:15:25;95812.56;;;8.17;48.69
32243;BME280;18731;42.830;24.390;2022-12-18T14:20:31;95818.72;;;8.12;48.40
32243;BME280;18731;42.830;24.390;2022-12-18T14:22:58;95819.75;;;8.16;47.98
32243;BME280;18731;42.830;24.390;2022-12-18T14:25:29;95821.31;;;8.17;48.62
32243;BME280;18731;42.830;24.390;2022-12-18T14:30:37;95819.22;;;8.14;47.94
32243;BME280;18731;42.830;24.390;2022-12-18T14:35:37;95813.13;;;8.14;46.17
32243;BME280;18731;42.830;24.390;2022-12-18T14:40:42;95830.78;;;7.99;47.71
32243;BME280;18731;42.830;24.390;2022-12-18T14:43:11;95829.44;;;8.02;45.47
32243;BME280;18731;42.830;24.390;2022-12-18T14:45:42;95831.97;;;7.83;45.81
32243;BME280;18731;42.830;24.390;2022-12-18T14:48:17;95833.38;;;7.70;46.23
32243;BME280;18731;42.830;24.390;2022-12-18T14:50:45;95827.81;;;7.67;46.92
32243;BME280;18731;42.830;24.390;2022-12-18T14:53:39;95826.56;;;7.54;46.75
32243;BME280;18731;42.830;24.390;2022-12-18T14:56:33;95836.44;;;7.49;50.24
32243;BME280;18731;42.830;24.390;2022-12-18T14:59:04;95838.84;;;7.45;51.50
32243;BME280;18731;42.830;24.390;2022-12-18T15:01:44;95834.03;;;7.47;50.73
32243;BME280;18731;42.830;24.390;2022-12-18T15:06:48;95843.03;;;7.56;50.05
32243;BME280;18731;42.830;24.390;2022-12-18T15:09:24;95844.06;;;7.60;47.64
32243;BME280;18731;42.830;24.390;2022-12-18T15:11:56;95851.06;;;7.41;49.41
32243;BME280;18731;42.830;24.390;2022-12-18T15:14:40;95841.56;;;7.35;47.81
32243;BME280;18731;42.830;24.390;2022-12-18T15:17:18;95833.66;;;7.20;48.88
32243;BME280;18731;42.830;24.390;2022-12-18T15:19:46;95844.47;;;7.33;49.27
32243;BME280;18731;42.830;24.390;2022-12-18T15:24:46;95837.88;;;7.26;49.37
32243;BME280;18731;42.830;24.390;2022-12-18T15:27:33;95840.81;;;7.24;49.97
32243;BME280;18731;42.830;24.390;2022-12-18T15:32:30;95839.47;;;7.27;53.58
32243;BME280;18731;42.830;24.390;2022-12-18T15:35:08;95841.88;;;7.23;54.33
32243;BME280;18731;42.830;24.390;2022-12-18T15:37:38;95843.25;;;7.16;55.67
32243;BME280;18731;42.830;24.390;2022-12-18T15:40:04;95850.69;;;7.14;55.30
32243;BME280;18731;42.830;24.390;2022-12-18T15:42:30;95850.69;;;7.14;54.61
32243;BME280;18731;42.830;24.390;2022-12-18T15:45:14;95840.63;;;7.05;54.47
32243;BME280;18731;42.830;24.390;2022-12-18T15:47:40;95842.75;;;7.08;53.94
32243;BME280;18731;42.830;24.390;2022-12-18T15:50:09;95851.78;;;7.07;52.30
32243;BME280;18731;42.830;24.390;2022-12-18T15:52:40;95849.13;;;7.07;52.05
32243;BME280;18731;42.830;24.390;2022-12-18T15:55:19;95854.69;;;7.06;52.35
32243;BME280;18731;42.830;24.390;2022-12-18T15:58:05;95860.53;;;7.08;54.94
32243;BME280;18731;42.830;24.390;2022-12-18T16:00:32;95867.69;;;7.07;57.04
32243;BME280;18731;42.830;24.390;2022-12-18T16:02:59;95860.25;;;7.09;57.77
32243;BME280;18731;42.830;24.390;2022-12-18T16:05:26;95852.34;;;6.94;58.41
32243;BME280;18731;42.830;24.390;2022-12-18T16:07:52;95870.41;;;6.92;57.27
32243;BME280;18731;42.830;24.390;2022-12-18T16:10:18;95873.06;;;6.97;56.01
32243;BME280;18731;42.830;24.390;2022-12-18T16:12:43;95870.41;;;6.92;51.32
32243;BME280;18731;42.830;24.390;2022-12-18T16:15:12;95875.75;;;6.82;52.18
32243;BME280;18731;42.830;24.390;2022-12-18T16:17:39;95882.13;;;6.81;51.65
32243;BME280;18731;42.830;24.390;2022-12-18T16:20:16;95877.88;;;6.80;49.72
32243;BME280;18731;42.830;24.390;2022-12-18T16:22:44;95886.91;;;6.79;49.63
32243;BME280;18731;42.830;24.390;2022-12-18T16:25:22;95890.41;;;6.54;49.95
32243;BME280;18731;42.830;24.390;2022-12-18T16:27:49;95891.72;;;6.52;49.75
32243;BME280;18731;42.830;24.390;2022-12-18T16:30:19;95896.50;;;6.44;50.83
32243;BME280;18731;42.830;24.390;2022-12-18T16:32:46;95893.34;;;6.42;50.90
32243;BME280;18731;42.830;24.390;2022-12-18T16:35:13;95899.69;;;6.47;50.97
32243;BME280;18731;42.830;24.390;2022-12-18T16:37:39;95903.94;;;6.42;50.91
32243;BME280;18731;42.830;24.390;2022-12-18T16:40:14;95913.50;;;6.49;50.51
32243;BME280;18731;42.830;24.390;2022-12-18T16:42:41;95912.97;;;6.41;49.41
32243;BME280;18731;42.830;24.390;2022-12-18T16:45:09;95918.81;;;6.38;49.75
32243;BME280;18731;42.830;24.390;2022-12-18T16:47:36;95932.84;;;6.34;49.54
32243;BME280;18731;42.830;24.390;2022-12-18T16:50:03;95935.78;;;6.22;50.53
32243;BME280;18731;42.830;24.390;2022-12-18T16:52:29;95924.63;;;6.15;50.76
32243;BME280;18731;42.830;24.390;2022-12-18T16:54:55;95931.25;;;6.12;49.94
32243;BME280;18731;42.830;24.390;2022-12-18T16:57:21;95926.94;;;5.86;49.56
32243;BME280;18731;42.830;24.390;2022-12-18T16:59:47;95951.06;;;5.79;49.45
32243;BME280;18731;42.830;24.390;2022-12-18T17:02:16;95959.50;;;5.66;49.25
32243;BME280;18731;42.830;24.390;2022-12-18T17:04:43;95943.25;;;5.42;50.25
32243;BME280;18731;42.830;24.390;2022-12-18T17:07:09;95963.59;;;5.32;50.54
32243;BME280;18731;42.830;24.390;2022-12-18T17:09:35;95972.06;;;5.29;51.32
32243;BME280;18731;42.830;24.390;2022-12-18T17:12:01;95967.25;;;5.21;51.39
32243;BME280;18731;42.830;24.390;2022-12-18T17:14:27;95972.56;;;5.21;50.61
32243;BME280;18731;42.830;24.390;2022-12-18T17:16:53;95980.50;;;5.21;51.16
32243;BME280;18731;42.830;24.390;2022-12-18T17:19:20;95979.13;;;5.18;52.30
32243;BME280;18731;42.830;24.390;2022-12-18T17:21:47;95986.09;;;5.29;51.92
32243;BME280;18731;42.830;24.390;2022-12-18T17:24:14;95993.78;;;5.31;52.64
32243;BME280;18731;42.830;24.390;2022-12-18T17:26:40;95998.84;;;5.37;52.88
32243;BME280;18731;42.830;24.390;2022-12-18T17:29:06;95992.72;;;5.32;52.71
32243;BME280;18731;42.830;24.390;2022-12-18T17:31:33;96003.91;;;5.44;52.43
32243;BME280;18731;42.830;24.390;2022-12-18T17:34:00;95990.38;;;5.40;52.75
32243;BME280;18731;42.830;24.390;2022-12-18T17:36:26;96008.16;;;5.45;52.73
32243;BME280;18731;42.830;24.390;2022-12-18T17:38:58;95997.22;;;5.31;52.56
32243;BME280;18731;42.830;24.390;2022-12-18T17:41:26;96016.00;;;5.30;52.45
32243;BME280;18731;42.830;24.390;2022-12-18T17:43:54;96015.47;;;5.28;52.96
32243;BME280;18731;42.830;24.390;2022-12-18T17:46:20;96022.78;;;5.15;53.44
32243;BME280;18731;42.830;24.390;2022-12-18T17:48:46;96021.69;;;5.11;53.02
32243;BME280;18731;42.830;24.390;2022-12-18T17:51:13;96020.41;;;5.14;53.60
32243;BME280;18731;42.830;24.390;2022-12-18T17:53:39;96028.63;;;5.17;53.51
32243;BME280;18731;42.830;24.390;2022-12-18T17:56:06;96018.50;;;5.09;53.80
32243;BME280;18731;42.830;24.390;2022-12-18T17:58:33;96032.31;;;5.16;52.80